Manseau, Canada
Current Conditions -  °F | °C
As of 1:00 PM on Monday 26 Jan 2015 (Local Time) from CYRQ Reporting Station
Clear Clear  
Wind Chill: -4°   Ceiling: Unl
Heat Index:   Visibility: 9mi
Dew Point: -9°   Wind: 5mph
Humidity: 52%   Direction: 100°E
Pressure: 30.23"   Gusts: NA
Location:  46.37°N, 72.02°W
Report Text: CYRQ 261800Z AUTO 10004KT 350V120 9SM CLR M15/M23 A3023 RMK SLP245
Loading
Personal Weather Stations






























Interactive Weather Map New forecast layout! Learn more

10-Day Weather Forecast

Advertisements
Track Severe Weather on mobile